TimePDT,TemperatureF,Dew PointF,Humidity,Sea Level PressureIn,VisibilityMPH,Wind Direction,Wind SpeedMPH,Gust SpeedMPH,PrecipitationIn,Events,Conditions,WindDirDegrees,DateUTC
12:53 AM,75.9,43.0,31,29.90,8.0,North,3.5,-,N/A,,Clear,360,2013-08-21 07:53:00
1:53 AM,75.9,42.1,30,29.90,10.0,West,3.5,-,N/A,,Clear,270,2013-08-21 08:53:00
2:53 AM,73.9,42.1,32,29.89,10.0,WNW,5.8,-,N/A,,Clear,300,2013-08-21 09:53:00
3:53 AM,73.0,45.0,37,29.89,10.0,NNE,4.6,-,N/A,,Clear,20,2013-08-21 10:53:00
4:53 AM,71.1,46.9,42,29.88,9.0,Calm,Calm,-,N/A,,Clear,0,2013-08-21 11:53:00
5:53 AM,69.1,48.0,47,29.88,10.0,Calm,Calm,-,N/A,,Clear,0,2013-08-21 12:53:00
6:53 AM,68.0,50.0,52,29.89,10.0,SSE,3.5,-,N/A,,Clear,160,2013-08-21 13:53:00
7:53 AM,69.1,50.0,51,29.91,8.0,Calm,Calm,-,N/A,,Clear,0,2013-08-21 14:53:00
8:53 AM,71.1,48.0,44,29.91,8.0,Calm,Calm,-,N/A,,Clear,0,2013-08-21 15:53:00
9:53 AM,75.9,44.1,32,29.91,10.0,Calm,Calm,-,N/A,,Clear,0,2013-08-21 16:53:00
10:53 AM,78.1,44.1,30,29.89,8.0,NW,3.5,-,N/A,,Clear,310,2013-08-21 17:53:00
11:53 AM,82.9,46.0,27,29.88,3.0,Variable,3.5,-,N/A,,Haze,0,2013-08-21 18:53:00
12:53 PM,84.9,46.9,27,29.86,4.0,Calm,Calm,-,N/A,,Haze,0,2013-08-21 19:53:00
1:53 PM,90.0,44.1,20,29.84,6.0,Calm,Calm,-,N/A,,Haze,0,2013-08-21 20:53:00
2:53 PM,91.9,42.1,18,29.81,9.0,WNW,3.5,-,N/A,,Clear,290,2013-08-21 21:53:00
3:53 PM,93.0,43.0,18,29.78,6.0,Calm,Calm,-,N/A,,Haze,0,2013-08-21 22:53:00
4:53 PM,93.9,45.0,18,29.77,6.0,South,6.9,-,N/A,,Haze,170,2013-08-21 23:53:00
5:53 PM,93.0,45.0,19,29.76,6.0,SSE,9.2,-,N/A,,Haze,150,2013-08-22 00:53:00
6:53 PM,93.0,44.1,18,29.77,6.0,South,4.6,-,N/A,,Haze,180,2013-08-22 01:53:00
7:53 PM,89.1,51.1,27,29.80,6.0,South,4.6,-,N/A,,Haze,190,2013-08-22 02:53:00
8:53 PM,87.1,51.1,29,29.81,6.0,East,3.5,-,N/A,,Haze,90,2013-08-22 03:53:00
9:53 PM,82.9,51.1,33,29.81,10.0,NE,10.4,-,N/A,,Clear,40,2013-08-22 04:53:00
10:53 PM,82.0,51.1,34,29.82,10.0,NW,5.8,-,N/A,,Clear,320,2013-08-22 05:53:00
11:53 PM,80.1,50.0,35,29.83,10.0,Calm,Calm,-,N/A,,Clear,0,2013-08-22 06:53:00